createdAt,value
2018-04-08T00:01:10.717Z,12.25
2018-04-08T00:03:38.209Z,12.16
2018-04-08T00:06:06.614Z,12.18
2018-04-08T00:12:04.234Z,12.29
2018-04-08T00:14:31.751Z,12.24
2018-04-08T00:16:59.252Z,12.38
2018-04-08T00:19:26.741Z,12.40
2018-04-08T00:21:54.236Z,12.45
2018-04-08T00:24:21.735Z,12.60
2018-04-08T00:26:49.239Z,12.74
2018-04-08T00:29:16.719Z,12.71
2018-04-08T00:31:44.221Z,12.72
2018-04-08T00:34:11.775Z,12.71
2018-04-08T00:36:39.269Z,12.68
2018-04-08T00:39:06.776Z,12.71
2018-04-08T00:41:34.273Z,12.62
2018-04-08T00:44:01.805Z,12.61
2018-04-08T00:46:29.306Z,12.49
2018-04-08T00:48:56.825Z,12.57
2018-04-08T00:51:24.776Z,12.44
2018-04-08T00:54:06.774Z,12.37
2018-04-08T00:56:34.296Z,12.33
2018-04-08T00:59:01.809Z,12.22
2018-04-08T01:01:29.304Z,12.17
2018-04-08T01:03:56.814Z,12.11
2018-04-08T01:06:24.312Z,12.01
2018-04-08T01:08:51.835Z,12.14
2018-04-08T01:11:19.332Z,12.13
2018-04-08T01:13:46.833Z,12.15
2018-04-08T01:16:14.314Z,12.06
2018-04-08T01:18:41.835Z,12.09
2018-04-08T01:21:09.335Z,12.07
2018-04-08T01:23:36.809Z,11.97
2018-04-08T01:26:04.298Z,11.93
2018-04-08T01:28:31.820Z,11.79
2018-04-08T01:30:59.340Z,11.62
2018-04-08T01:33:26.837Z,11.50
2018-04-08T01:35:54.314Z,11.35
2018-04-08T01:38:21.835Z,11.31
2018-04-08T01:40:49.334Z,11.20
2018-04-08T01:43:16.828Z,11.11
2018-04-08T01:45:44.319Z,10.98
2018-04-08T01:48:11.841Z,10.87
2018-04-08T01:50:39.327Z,10.70
2018-04-08T01:53:06.832Z,10.54
2018-04-08T01:55:34.349Z,10.38
2018-04-08T01:58:01.852Z,10.36
2018-04-08T02:00:29.360Z,10.34
2018-04-08T02:02:56.854Z,10.26
2018-04-08T02:05:24.340Z,10.24
2018-04-08T02:07:51.885Z,10.27
2018-04-08T02:10:19.422Z,10.27
2018-04-08T02:12:46.928Z,10.17
2018-04-08T02:15:14.432Z,10.08
2018-04-08T02:17:41.912Z,10.00
2018-04-08T02:20:09.446Z,9.93
2018-04-08T02:22:36.937Z,10.00
2018-04-08T02:25:04.432Z,9.91
2018-04-08T02:27:31.912Z,9.90
2018-04-08T02:29:59.456Z,9.85
2018-04-08T02:32:26.957Z,9.73
2018-04-08T02:34:54.472Z,9.70
2018-04-08T02:37:21.988Z,9.73
2018-04-08T02:39:49.491Z,9.75
2018-04-08T02:42:17.016Z,9.70
2018-04-08T02:44:44.502Z,9.68
2018-04-08T02:47:11.996Z,9.71
2018-04-08T02:49:39.494Z,9.69
2018-04-08T02:52:06.967Z,9.66
2018-04-08T02:54:34.473Z,9.68
2018-04-08T02:57:01.960Z,9.62
2018-04-08T02:59:29.437Z,9.64
2018-04-08T03:01:56.934Z,9.57
2018-04-08T03:04:24.407Z,9.47
2018-04-08T03:06:51.896Z,9.42
2018-04-08T03:09:19.404Z,9.34
2018-04-08T03:11:46.927Z,9.26
2018-04-08T03:14:14.405Z,9.33
2018-04-08T03:16:41.900Z,9.27
2018-04-08T03:19:09.400Z,9.31
2018-04-08T03:21:36.881Z,9.26
2018-04-08T03:24:04.374Z,9.29
2018-04-08T03:26:31.890Z,9.08
2018-04-08T03:28:59.387Z,9.17
2018-04-08T03:31:26.898Z,9.15
2018-04-08T03:33:54.417Z,9.07
2018-04-08T03:36:21.907Z,9.13
2018-04-08T03:38:49.424Z,9.11
2018-04-08T03:41:16.902Z,9.19
2018-04-08T03:43:44.393Z,9.16
2018-04-08T03:46:11.935Z,9.15
2018-04-08T03:48:39.407Z,9.12
2018-04-08T03:51:06.906Z,9.15
2018-04-08T03:53:34.425Z,9.16
2018-04-08T03:56:01.924Z,9.17
2018-04-08T03:58:29.406Z,9.08
2018-04-08T04:00:56.922Z,9.05
2018-04-08T04:03:24.461Z,9.08
2018-04-08T04:05:51.950Z,9.08
2018-04-08T04:08:19.468Z,9.07
2018-04-08T04:10:46.971Z,9.03
2018-04-08T04:13:14.449Z,8.99
2018-04-08T04:15:41.944Z,8.97
2018-04-08T04:18:21.176Z,8.97
2018-04-08T04:21:00.339Z,9.00
2018-04-08T04:23:39.597Z,9.01
2018-04-08T04:26:15.701Z,8.98
2018-04-08T04:28:43.178Z,8.98
2018-04-08T04:31:10.700Z,8.98
2018-04-08T04:33:38.831Z,8.95
2018-04-08T04:36:06.348Z,8.96
2018-04-08T04:38:33.859Z,8.95
2018-04-08T04:41:01.360Z,8.94
2018-04-08T04:43:28.864Z,8.89
2018-04-08T04:45:56.354Z,8.87
2018-04-08T04:48:23.831Z,8.87
2018-04-08T04:50:51.346Z,8.87
2018-04-08T04:53:18.864Z,8.83
2018-04-08T04:55:46.378Z,8.90
2018-04-08T04:58:13.859Z,8.98
2018-04-08T05:00:41.345Z,8.97
2018-04-08T05:03:08.852Z,9.00
2018-04-08T05:05:36.329Z,9.06
2018-04-08T05:08:03.836Z,9.08
2018-04-08T05:10:31.827Z,9.07
2018-04-08T05:12:59.735Z,9.04
2018-04-08T05:15:27.460Z,9.08
2018-04-08T05:17:54.970Z,9.14
2018-04-08T05:20:22.497Z,9.12
2018-04-08T05:22:50.054Z,9.14
2018-04-08T05:25:17.603Z,9.21
2018-04-08T05:27:45.121Z,9.34
2018-04-08T05:30:12.698Z,9.34
2018-04-08T05:32:40.197Z,9.46
2018-04-08T05:35:07.727Z,9.58
2018-04-08T05:37:35.339Z,9.70
2018-04-08T05:40:02.850Z,9.80
2018-04-08T05:42:30.334Z,9.82
2018-04-08T05:44:57.824Z,9.91
2018-04-08T05:47:25.338Z,10.02
2018-04-08T05:49:52.833Z,10.15
2018-04-08T05:52:27.938Z,10.17
2018-04-08T05:54:55.440Z,10.32
2018-04-08T05:57:22.949Z,10.49
2018-04-08T05:59:52.260Z,11.27
2018-04-08T06:02:24.397Z,12.41
2018-04-08T06:04:51.954Z,13.20
2018-04-08T06:07:19.542Z,13.99
2018-04-08T06:09:47.122Z,14.17
2018-04-08T06:12:14.664Z,14.77
2018-04-08T06:14:47.292Z,15.08
2018-04-08T06:17:17.085Z,15.67
2018-04-08T06:19:44.560Z,15.39
2018-04-08T06:22:12.065Z,15.93
2018-04-08T06:24:41.445Z,16.44
2018-04-08T06:27:08.938Z,16.76
2018-04-08T06:29:36.482Z,17.05
2018-04-08T06:32:03.980Z,16.82
2018-04-08T06:34:31.853Z,17.20
2018-04-08T06:36:59.425Z,17.11
2018-04-08T06:39:26.987Z,16.61
2018-04-08T06:41:54.505Z,16.81
2018-04-08T06:44:22.001Z,16.91
2018-04-08T06:46:49.510Z,16.76
2018-04-08T06:49:17.095Z,16.32
2018-04-08T06:51:46.317Z,16.03
2018-04-08T06:54:13.815Z,15.71
2018-04-08T06:56:41.332Z,15.76
2018-04-08T06:59:10.835Z,15.28
2018-04-08T07:01:43.102Z,15.91
2018-04-08T07:04:10.643Z,15.95
2018-04-08T07:06:38.209Z,15.26
2018-04-08T07:09:05.746Z,14.97
2018-04-08T07:11:33.240Z,15.72
2018-04-08T07:14:00.721Z,16.14
2018-04-08T07:16:28.917Z,15.71
2018-04-08T07:18:56.444Z,15.87
2018-04-08T07:21:27.548Z,16.32
2018-04-08T07:23:55.051Z,16.64
2018-04-08T07:26:22.546Z,16.90
2018-04-08T07:28:50.103Z,16.99
2018-04-08T07:31:17.602Z,17.68
2018-04-08T07:33:45.099Z,17.87
2018-04-08T07:36:12.598Z,17.74
2018-04-08T07:38:40.071Z,17.77
2018-04-08T07:41:07.610Z,18.10
2018-04-08T07:43:35.124Z,18.72
2018-04-08T07:46:02.686Z,18.23
2018-04-08T07:48:30.230Z,17.74
2018-04-08T07:50:57.831Z,17.70
2018-04-08T07:53:25.381Z,18.38
2018-04-08T07:55:52.958Z,19.21
2018-04-08T07:58:20.499Z,19.37
2018-04-08T08:00:48.021Z,20.21
2018-04-08T08:03:15.527Z,20.47
2018-04-08T08:05:43.036Z,20.39
2018-04-08T08:08:10.571Z,20.30
2018-04-08T08:10:38.114Z,20.56
2018-04-08T08:13:05.650Z,21.16
2018-04-08T08:15:33.157Z,20.21
2018-04-08T08:18:00.658Z,20.05
2018-04-08T08:20:28.159Z,19.86
2018-04-08T08:22:55.737Z,20.04
2018-04-08T08:25:23.247Z,19.88
2018-04-08T08:27:50.751Z,19.17
2018-04-08T08:30:18.263Z,19.40
2018-04-08T08:32:45.813Z,19.76
2018-04-08T08:35:13.306Z,19.80
2018-04-08T08:37:40.916Z,19.48
2018-04-08T08:40:08.427Z,19.50
2018-04-08T08:42:35.949Z,19.78
2018-04-08T08:45:04.277Z,19.33
2018-04-08T08:47:31.803Z,19.75
2018-04-08T08:49:59.338Z,20.02
2018-04-08T08:52:26.842Z,19.83
2018-04-08T08:54:54.383Z,19.33
2018-04-08T08:57:21.885Z,19.38
2018-04-08T08:59:49.390Z,19.44
2018-04-08T09:02:16.888Z,19.39
2018-04-08T09:04:44.376Z,19.49
2018-04-08T09:07:11.878Z,19.09
2018-04-08T09:09:39.386Z,19.37
2018-04-08T09:12:06.905Z,19.37
2018-04-08T09:14:34.435Z,19.76
2018-04-08T09:17:01.931Z,19.69
2018-04-08T09:19:33.964Z,19.43
2018-04-08T09:22:03.408Z,19.50
2018-04-08T09:24:41.758Z,19.80
2018-04-08T09:27:09.248Z,19.82
2018-04-08T09:29:36.768Z,19.61
2018-04-08T09:32:04.235Z,19.56
2018-04-08T09:34:31.760Z,19.64
2018-04-08T09:36:59.271Z,19.63
2018-04-08T09:39:26.793Z,19.95
2018-04-08T09:41:54.327Z,19.41
2018-04-08T09:44:21.815Z,19.19
2018-04-08T09:46:49.434Z,19.48
2018-04-08T09:49:16.925Z,19.82
2018-04-08T09:51:44.421Z,19.66
2018-04-08T09:54:11.951Z,19.92
2018-04-08T09:56:39.434Z,20.06
2018-04-08T09:59:06.960Z,20.29
2018-04-08T10:04:37.442Z,19.68
2018-04-08T10:07:04.933Z,19.77
2018-04-08T10:09:32.491Z,19.94
2018-04-08T10:11:59.998Z,20.10
2018-04-08T10:14:27.486Z,19.83
2018-04-08T10:16:54.990Z,19.90
2018-04-08T10:19:22.505Z,20.20
2018-04-08T10:21:50.020Z,20.39
2018-04-08T10:24:17.527Z,20.05
2018-04-08T10:26:45.044Z,20.23
2018-04-08T10:29:12.597Z,20.29
2018-04-08T10:31:40.054Z,20.69
2018-04-08T10:34:07.551Z,20.87
2018-04-08T10:36:35.061Z,20.65
2018-04-08T10:39:02.546Z,20.33
2018-04-08T10:41:30.043Z,20.62
2018-04-08T10:43:57.551Z,20.63
2018-04-08T10:46:25.079Z,20.71
2018-04-08T10:48:52.574Z,20.68
2018-04-08T10:51:20.073Z,20.67
2018-04-08T10:53:48.075Z,20.78
2018-04-08T10:56:15.576Z,20.45
2018-04-08T10:58:43.254Z,20.40
2018-04-08T11:01:11.249Z,20.52
2018-04-08T11:03:38.788Z,20.55
2018-04-08T11:06:06.303Z,20.42
2018-04-08T11:08:33.819Z,20.53
2018-04-08T11:11:01.332Z,20.51
2018-04-08T11:13:28.817Z,20.71
2018-04-08T11:15:56.335Z,20.76
2018-04-08T11:18:23.846Z,20.93
2018-04-08T11:20:51.341Z,20.79
2018-04-08T11:23:18.817Z,20.65
2018-04-08T11:25:46.358Z,20.66
2018-04-08T11:28:13.990Z,20.58
2018-04-08T11:30:41.502Z,20.97
2018-04-08T11:33:08.988Z,20.86
2018-04-08T11:35:36.498Z,21.01
2018-04-08T11:38:03.997Z,20.72
2018-04-08T11:40:31.498Z,20.55
2018-04-08T11:42:59.001Z,20.84
2018-04-08T11:45:26.533Z,20.87
2018-04-08T11:47:54.035Z,21.01
2018-04-08T11:50:21.569Z,20.87
2018-04-08T11:52:49.050Z,20.99
2018-04-08T11:55:16.549Z,21.13
2018-04-08T11:57:44.052Z,21.09
2018-04-08T12:00:11.589Z,21.14
2018-04-08T12:02:39.102Z,21.34
2018-04-08T12:05:06.600Z,21.31
2018-04-08T12:07:34.078Z,21.18
2018-04-08T12:10:01.570Z,21.26
2018-04-08T12:12:29.078Z,21.34
2018-04-08T12:14:56.608Z,21.24
2018-04-08T12:17:24.063Z,21.32
2018-04-08T12:19:51.568Z,21.34
2018-04-08T12:22:19.080Z,21.35
2018-04-08T12:24:46.558Z,21.26
2018-04-08T12:27:14.967Z,21.21
2018-04-08T12:29:42.461Z,21.34
2018-04-08T12:32:09.990Z,21.20
2018-04-08T12:34:37.494Z,21.28
2018-04-08T12:37:05.014Z,21.36
2018-04-08T12:39:32.508Z,21.42
2018-04-08T12:42:00.156Z,21.50
2018-04-08T12:44:27.650Z,21.57
2018-04-08T12:46:55.153Z,21.64
2018-04-08T12:49:22.676Z,21.78
2018-04-08T12:51:50.251Z,21.70
2018-04-08T12:54:17.690Z,21.60
2018-04-08T12:56:45.177Z,21.59
2018-04-08T12:59:12.674Z,21.57
2018-04-08T13:01:40.441Z,21.60
2018-04-08T13:04:07.926Z,21.71
2018-04-08T13:06:35.429Z,21.76
2018-04-08T13:09:02.941Z,21.73
2018-04-08T13:11:30.448Z,21.48
2018-04-08T13:13:57.939Z,21.70
2018-04-08T13:16:25.449Z,21.66
2018-04-08T13:18:53.026Z,21.79
2018-04-08T13:21:20.512Z,21.58
2018-04-08T13:23:48.050Z,21.69
2018-04-08T13:26:15.548Z,21.66
2018-04-08T13:28:43.063Z,21.73
2018-04-08T13:31:10.729Z,21.91
2018-04-08T13:33:38.256Z,21.81
2018-04-08T13:36:05.761Z,21.64
2018-04-08T13:38:33.283Z,21.94
2018-04-08T13:41:00.783Z,21.91
2018-04-08T13:43:28.257Z,22.11
2018-04-08T13:45:55.850Z,21.95
2018-04-08T13:48:23.348Z,21.63
2018-04-08T13:50:50.860Z,21.94
2018-04-08T13:53:18.368Z,21.88
2018-04-08T13:55:45.882Z,21.78
2018-04-08T13:58:13.393Z,21.87
2018-04-08T14:00:40.884Z,21.67
2018-04-08T14:03:08.394Z,21.82
2018-04-08T14:05:35.920Z,21.82
2018-04-08T14:08:03.422Z,21.91
2018-04-08T14:10:30.930Z,21.85
2018-04-08T14:12:58.430Z,21.77
2018-04-08T14:15:25.925Z,21.46
2018-04-08T14:17:53.466Z,21.52
2018-04-08T14:20:20.959Z,21.58
2018-04-08T14:22:48.559Z,21.43
2018-04-08T14:25:16.311Z,21.32
2018-04-08T14:27:43.850Z,21.46
2018-04-08T14:30:11.354Z,21.47
2018-04-08T14:32:38.856Z,21.41
2018-04-08T14:35:06.364Z,21.38
2018-04-08T14:37:33.863Z,21.50
2018-04-08T14:40:01.372Z,21.55
2018-04-08T14:42:28.865Z,21.39
2018-04-08T14:44:56.436Z,21.36
2018-04-08T14:47:23.978Z,21.37
2018-04-08T14:49:51.536Z,21.33
2018-04-08T14:52:19.124Z,21.31
2018-04-08T14:54:46.636Z,21.21
2018-04-08T14:57:14.220Z,21.28
2018-04-08T14:59:41.714Z,21.17
2018-04-08T15:02:09.246Z,21.10
2018-04-08T15:04:36.766Z,21.00
2018-04-08T15:07:04.275Z,21.14
2018-04-08T15:09:31.806Z,21.10
2018-04-08T15:11:59.371Z,21.13
2018-04-08T15:14:26.861Z,21.14
2018-04-08T15:16:54.369Z,21.13
2018-04-08T15:19:21.852Z,21.06
2018-04-08T15:21:49.342Z,21.00
2018-04-08T15:24:16.854Z,21.02
2018-04-08T15:26:44.364Z,21.09
2018-04-08T15:29:11.904Z,20.98
2018-04-08T15:31:39.443Z,20.84
2018-04-08T15:34:07.024Z,20.88
2018-04-08T15:36:34.547Z,20.93
2018-04-08T15:39:02.123Z,20.76
2018-04-08T15:41:29.639Z,20.99
2018-04-08T15:43:57.130Z,20.99
2018-04-08T15:46:24.602Z,20.95
2018-04-08T15:48:52.119Z,20.81
2018-04-08T15:51:19.671Z,20.85
2018-04-08T15:53:47.462Z,20.68
2018-04-08T15:56:17.031Z,20.67
2018-04-08T15:58:46.392Z,20.46
2018-04-08T16:01:14.138Z,20.63
2018-04-08T16:03:42.793Z,20.48
2018-04-08T16:06:10.997Z,20.47
2018-04-08T16:08:40.925Z,20.55
2018-04-08T16:11:08.944Z,20.57
2018-04-08T16:13:36.464Z,20.46
2018-04-08T16:16:03.939Z,20.38
2018-04-08T16:18:31.429Z,20.37
2018-04-08T16:20:59.053Z,20.36
2018-04-08T16:23:26.552Z,20.36
2018-04-08T16:25:54.056Z,20.32
2018-04-08T16:28:21.654Z,20.13
2018-04-08T16:30:49.153Z,20.22
2018-04-08T16:33:16.696Z,20.01
2018-04-08T16:35:44.251Z,19.99
2018-04-08T16:38:11.744Z,19.96
2018-04-08T16:40:39.245Z,19.98
2018-04-08T16:43:06.749Z,19.97
2018-04-08T16:45:34.253Z,19.73
2018-04-08T16:48:01.779Z,19.74
2018-04-08T16:50:29.270Z,19.59
2018-04-08T16:52:56.844Z,19.67
2018-04-08T16:55:24.344Z,19.58
2018-04-08T16:57:51.856Z,19.37
2018-04-08T17:00:19.379Z,19.30
2018-04-08T17:02:46.884Z,19.19
2018-04-08T17:05:14.415Z,19.24
2018-04-08T17:07:41.906Z,19.13
2018-04-08T17:10:09.428Z,19.06
2018-04-08T17:12:36.913Z,19.01
2018-04-08T17:15:04.393Z,18.93
2018-04-08T17:17:31.909Z,18.75
2018-04-08T17:19:59.419Z,18.74
2018-04-08T17:22:26.959Z,18.67
2018-04-08T17:24:54.502Z,18.62
2018-04-08T17:27:22.052Z,18.68
2018-04-08T17:29:49.592Z,18.62
2018-04-08T17:32:17.129Z,18.53
2018-04-08T17:34:44.638Z,18.31
2018-04-08T17:37:12.156Z,18.30
2018-04-08T17:39:39.646Z,18.16
2018-04-08T17:42:07.146Z,18.18
2018-04-08T17:44:34.670Z,18.03
2018-04-08T17:47:02.179Z,18.08
2018-04-08T17:49:29.751Z,17.93
2018-04-08T17:51:57.267Z,17.82
2018-04-08T17:54:24.787Z,17.78
2018-04-08T17:56:52.268Z,17.61
2018-04-08T17:59:19.792Z,17.42
2018-04-08T18:01:47.351Z,17.31
2018-04-08T18:04:14.841Z,17.22
2018-04-08T18:06:42.323Z,17.32
2018-04-08T18:09:09.830Z,17.23
2018-04-08T18:11:37.321Z,17.22
2018-04-08T18:14:04.885Z,17.23
2018-04-08T18:16:32.414Z,17.05
2018-04-08T18:18:59.910Z,16.98
2018-04-08T18:21:27.644Z,16.94
2018-04-08T18:23:55.144Z,16.80
2018-04-08T18:26:22.651Z,16.74
2018-04-08T18:28:50.608Z,16.73
2018-04-08T18:31:18.106Z,16.71
2018-04-08T18:33:45.626Z,16.58
2018-04-08T18:36:13.143Z,16.56
2018-04-08T18:38:41.183Z,16.50
2018-04-08T18:41:08.775Z,16.49
2018-04-08T18:43:36.347Z,16.37
2018-04-08T18:46:03.856Z,16.39
2018-04-08T18:48:31.420Z,16.36
2018-04-08T18:50:58.942Z,16.29
2018-04-08T18:53:26.483Z,16.24
2018-04-08T18:55:53.996Z,16.09
2018-04-08T18:58:21.498Z,16.17
2018-04-08T19:00:49.018Z,15.95
2018-04-08T19:03:16.573Z,15.95
2018-04-08T19:05:44.093Z,15.87
2018-04-08T19:08:11.586Z,15.88
2018-04-08T19:10:39.339Z,15.90
2018-04-08T19:13:06.872Z,15.86
2018-04-08T19:15:34.509Z,15.78
2018-04-08T19:18:02.977Z,15.76
2018-04-08T19:20:31.115Z,15.75
2018-04-08T19:22:58.659Z,15.61
2018-04-08T19:25:26.295Z,15.63
2018-04-08T19:27:53.842Z,15.59
2018-04-08T19:30:22.071Z,15.57
2018-04-08T19:32:49.610Z,15.50
2018-04-08T19:35:17.104Z,15.44
2018-04-08T19:37:44.646Z,15.51
2018-04-08T19:40:12.215Z,15.45
2018-04-08T19:42:39.903Z,15.52
2018-04-08T19:45:07.576Z,15.38
2018-04-08T19:47:35.102Z,15.36
2018-04-08T19:50:02.616Z,15.39
2018-04-08T19:52:30.142Z,15.38
2018-04-08T19:54:57.622Z,15.34
2018-04-08T19:57:25.509Z,15.30
2018-04-08T19:59:53.146Z,15.29
2018-04-08T20:02:20.659Z,15.17
2018-04-08T20:04:48.291Z,15.20
2018-04-08T20:07:15.788Z,15.20
2018-04-08T20:09:43.289Z,15.12
2018-04-08T20:12:10.825Z,15.09
2018-04-08T20:14:38.377Z,15.07
2018-04-08T20:17:05.882Z,14.94
2018-04-08T20:19:33.891Z,14.96
2018-04-08T20:22:01.590Z,14.91
2018-04-08T20:24:29.889Z,14.87
2018-04-08T20:26:57.415Z,14.90
2018-04-08T20:29:24.930Z,14.87
2018-04-08T20:31:52.564Z,14.80
2018-04-08T20:34:20.291Z,14.83
2018-04-08T20:36:47.790Z,14.73
2018-04-08T20:39:15.293Z,14.70
2018-04-08T20:41:42.793Z,14.66
2018-04-08T20:44:10.309Z,14.65
2018-04-08T20:46:37.822Z,14.62
2018-04-08T20:49:05.387Z,14.56
2018-04-08T20:51:32.852Z,14.41
2018-04-08T20:54:00.373Z,14.42
2018-04-08T20:56:27.896Z,14.38
2018-04-08T20:58:55.436Z,14.28
2018-04-08T21:01:22.928Z,14.16
2018-04-08T21:03:50.441Z,14.22
2018-04-08T21:06:17.946Z,14.25
2018-04-08T21:08:45.458Z,14.24
2018-04-08T21:11:12.942Z,14.22
2018-04-08T21:13:40.940Z,14.20
2018-04-08T21:16:08.461Z,14.14
2018-04-08T21:18:35.984Z,14.08
2018-04-08T21:21:03.485Z,14.12
2018-04-08T21:23:31.050Z,14.09
2018-04-08T21:25:58.517Z,14.00
2018-04-08T21:28:26.022Z,14.05
2018-04-08T21:30:53.622Z,14.03
2018-04-08T21:33:21.123Z,13.97
2018-04-08T21:35:48.641Z,13.92
2018-04-08T21:38:16.160Z,13.82
2018-04-08T21:40:43.660Z,13.72
2018-04-08T21:43:11.179Z,13.68
2018-04-08T21:45:38.665Z,13.50
2018-04-08T21:48:06.157Z,13.60
2018-04-08T21:50:33.642Z,13.47
2018-04-08T21:53:01.211Z,13.43
2018-04-08T21:55:28.706Z,13.36
2018-04-08T21:57:56.236Z,13.37
2018-04-08T22:00:23.736Z,13.33
2018-04-08T22:02:51.218Z,13.29
2018-04-08T22:05:18.725Z,13.21
2018-04-08T22:07:46.265Z,13.26
2018-04-08T22:10:13.780Z,13.26
2018-04-08T22:12:41.282Z,13.29
2018-04-08T22:15:08.769Z,13.24
2018-04-08T22:17:36.262Z,13.26
2018-04-08T22:20:03.751Z,13.26
2018-04-08T22:22:31.251Z,13.21
2018-04-08T22:24:58.759Z,13.16
2018-04-08T22:27:26.260Z,13.15
2018-04-08T22:29:53.782Z,13.18
2018-04-08T22:32:21.300Z,13.24
2018-04-08T22:34:48.808Z,13.21
2018-04-08T22:37:16.297Z,13.14
2018-04-08T22:39:43.794Z,13.20
2018-04-08T22:42:11.284Z,13.11
2018-04-08T22:44:38.772Z,13.08
2018-04-08T22:47:06.280Z,13.13
2018-04-08T22:49:33.806Z,13.08
2018-04-08T22:52:01.327Z,13.06
2018-04-08T22:54:28.809Z,13.13
2018-04-08T22:56:56.325Z,13.16
2018-04-08T22:59:23.830Z,13.15
2018-04-08T23:01:51.329Z,13.14
2018-04-08T23:04:18.810Z,13.20
2018-04-08T23:06:46.324Z,13.31
2018-04-08T23:09:13.826Z,13.21
2018-04-08T23:11:41.354Z,13.20
2018-04-08T23:14:08.840Z,13.03
2018-04-08T23:16:36.371Z,13.01
2018-04-08T23:19:03.863Z,13.02
2018-04-08T23:21:31.334Z,12.91
2018-04-08T23:23:58.827Z,13.05
2018-04-08T23:26:26.346Z,12.97
2018-04-08T23:28:53.867Z,12.84
2018-04-08T23:31:21.354Z,12.76
2018-04-08T23:33:48.924Z,12.61
2018-04-08T23:36:16.787Z,12.50
2018-04-08T23:38:44.310Z,12.35
2018-04-08T23:41:11.796Z,12.25
2018-04-08T23:43:39.338Z,12.21
2018-04-08T23:46:06.822Z,12.10
2018-04-08T23:48:34.308Z,12.03
2018-04-08T23:51:01.829Z,11.96
2018-04-08T23:53:29.345Z,11.98
2018-04-08T23:55:56.830Z,11.89
2018-04-08T23:58:24.319Z,11.76
